Latest Coastal Weather Observations for Mackay

IDQ60701

Issued at 10:21 am EST Thursday 20 September 2018 (issued every 10 minutes, with the page automatically refreshed every 10 minutes)

About coastal observations | Map of coastal stations | Coastal observations for QLD | Marine services | Other Formats
Station Details ID: 033119 Name: MACKAY M.O Lat: -21.12 Lon: 149.22 Height: 30.26 m
Data from the previous 72 hours. | See also: Recent months at Mackay
Date/Time
EST
Wind Sea
Height
m
Swell Vis
km
Cloud Weather Temp
°C
Press
hPa
Rain since
9am
mm
Dir  Spd
kts
Gust
kts
Height
m
Period
s
Dir
20/10:00am N 6 10 - - - - - - - 27.3 1016.3 0.0
20/09:30am NNE 4 8 - - - - - - - 25.9 1016.1 0.0
20/09:00am WNW 2 4 - - - - - Mostly clear - 23.9 1016.1 0.0
20/08:30am WSW 5 7 - - - - - - - 22.4 1016.1 0.0
20/08:00am WSW 4 7 - - - - - - - 21.1 1015.8 0.0
20/07:30am WSW 4 6 - - - - - - - 19.2 1015.6 0.0
20/07:00am WSW 6 9 - - - - - - - 17.5 1015.5 0.0
20/06:30am WSW 6 9 - - - - - - - 16.3 1015.3 0.0
20/06:00am WSW 7 9 - - - - - - - 15.9 1015.0 0.0
20/05:30am WSW 7 11 - - - - - - - 15.9 1014.7 0.0
20/05:00am WSW 7 9 - - - - - - - 15.9 1014.3 0.0
20/04:30am WSW 7 9 - - - - - - - 16.1 1014.2 0.0
20/04:00am WSW 7 9 - - - - - - - 16.1 1014.2 0.0
20/03:30am WSW 6 8 - - - - - - - 16.2 1014.1 0.0
20/03:00am WSW 7 8 - - - - - - - 16.4 1014.3 0.0
20/02:30am WSW 6 8 - - - - - - - 16.7 1014.6 0.0
20/02:00am WSW 6 8 - - - - - Partly cloudy - 17.1 1015.0 0.0
20/01:30am WSW 6 8 - - - - - - - 17.1 1015.3 0.0
20/01:00am WSW 6 8 - - - - - Partly cloudy - 17.5 1015.6 0.0
20/12:30am WSW 6 7 - - - - - - - 17.5 1016.0 0.0
20/12:00am W 5 7 - - - - - - - 17.7 1016.1 0.0
 
Date/Time
EST
Wind Sea
Height
m
Swell Vis
km
Cloud Weather Temp
°C
Press
hPa
Rain since
9am
mm
Dir  Spd
kts
Gust
kts
Height
m
Period
s
Dir
19/11:30pm W 6 7 - - - - - - - 17.5 1016.3 0.0
19/11:00pm WSW 5 6 - - - - - - - 18.1 1016.4 0.0
19/10:30pm NE 3 5 - - - - - - - 20.0 1016.4 0.0
19/10:00pm NE 4 7 - - - - - - - 20.1 1016.4 0.0
19/09:30pm ENE 4 6 - - - - - - - 20.2 1016.3 0.0
19/09:00pm E 5 6 - - - - - - - 20.8 1016.3 0.0
19/08:30pm E 4 6 - - - - - - - 21.0 1016.3 0.0
19/08:00pm ENE 3 5 - - - - - - - 20.8 1016.0 0.0
19/07:30pm ENE 3 5 - - - - - - - 21.0 1015.8 0.0
19/07:00pm NE 3 5 - - - - - - - 20.8 1015.5 0.0
19/06:30pm NE 3 5 - - - - - - - 20.8 1015.2 0.0
19/06:00pm NE 3 6 - - - - - - - 21.5 1014.8 0.0
19/05:30pm E 5 7 - - - - - - - 22.5 1014.7 0.0
19/05:00pm ENE 5 9 - - - - - - - 23.3 1014.4 0.0
19/04:30pm ENE 5 9 - - - - - - - 23.7 1014.1 0.0
19/04:00pm ENE 6 10 - - - - - - - 24.0 1014.0 0.0
19/03:30pm E 5 8 - - - - - - - 24.0 1014.1 0.0
19/03:00pm E 6 8 - - - - - - - 23.7 1014.2 0.0
19/02:30pm ENE 6 9 - - - - - - - 24.6 1014.6 0.0
19/02:00pm E 6 10 - - - - - - - 24.1 1015.1 0.0
19/01:30pm ENE 7 10 - - - - - - - 25.1 1015.4 0.0
19/01:00pm E 6 9 - - - - - - - 24.8 1015.7 0.0
19/12:30pm ESE 6 10 - - - - - - - 24.0 1016.1 0.0
19/12:00pm ESE 6 8 - - - - - - - 23.9 1016.6 0.0
19/11:30am E 5 8 - - - - - - - 24.2 1017.1 0.0
19/11:00am ENE 6 9 - - - - - - - 24.8 1017.7 0.0
19/10:30am ENE 6 8 - - - - - - - 24.3 1018.3 0.0
19/10:00am E 6 10 - - - - - - - 24.6 1018.6 0.0
19/09:30am ESE 6 8 - - - - - - - 24.0 1019.0 0.0
19/09:00am E 5 8 - - - - - - - 24.4 1019.0 0.0
19/08:30am E 7 10 - - - - - - - 23.6 1019.0 0.0
19/08:00am E 5 8 - - - - - Partly cloudy - 23.0 1018.7 0.0
19/07:30am SSW 3 6 - - - - - Partly cloudy - 20.6 1018.5 0.0
19/07:00am SE 3 6 - - - - - - - 19.6 1018.0 0.0
19/06:30am ENE 5 9 - - - - - - - 20.3 1017.5 0.0
19/06:00am E 8 11 - - - - - - - 20.6 1017.2 0.0
19/05:30am E 7 11 - - - - - - - 20.6 1017.1 0.0
19/05:00am E 9 12 - - - - - Partly cloudy - 21.0 1016.8 0.0
19/04:30am E 8 11 - - - - - Partly cloudy - 20.9 1016.6 0.0
19/04:00am E 8 12 - - - - - Partly cloudy - 21.1 1016.4 0.0
19/03:30am ENE 7 11 - - - - - Partly cloudy - 20.6 1016.3 0.0
19/03:00am ENE 6 11 - - - - - Mostly clear - 20.4 1016.4 0.0
19/02:30am ENE 8 11 - - - - - Partly cloudy - 20.7 1016.5 0.0
19/02:00am ENE 9 13 - - - - - Partly cloudy - 21.1 1016.6 0.0
19/01:30am ENE 6 10 - - - - - Partly cloudy - 20.7 1016.8 0.0
19/01:00am ENE 7 11 - - - - - Partly cloudy - 20.8 1017.2 0.0
19/12:30am E 7 11 - - - - - Partly cloudy - 20.9 1017.4 0.0
19/12:00am E 7 10 - - - - - Mostly clear - 20.7 1017.7 0.0
 
Date/Time
EST
Wind Sea
Height
m
Swell Vis
km
Cloud Weather Temp
°C
Press
hPa
Rain since
9am
mm
Dir  Spd
kts
Gust
kts
Height
m
Period
s
Dir
18/11:30pm E 8 12 - - - - - - - 21.2 1017.7 0.0
18/11:00pm E 10 14 - - - - - Partly cloudy - 21.2 1017.7 0.0
18/10:30pm E 11 15 - - - - - Partly cloudy - 21.5 1017.8 0.0
18/10:00pm E 10 16 - - - - - Cloudy - 21.8 1017.7 0.0
18/09:30pm E 10 15 - - - - - Cloudy - 21.9 1017.8 0.0
18/09:00pm E 11 15 - - - - - Cloudy - 22.0 1017.5 0.0
18/08:30pm E 11 15 - - - - - Partly cloudy - 21.9 1017.4 0.0
18/08:00pm E 11 17 - - - - - Partly cloudy - 22.2 1017.3 0.0
18/07:30pm E 9 16 - - - - - Partly cloudy - 22.2 1017.0 0.0
18/07:00pm E 10 17 - - - - - Partly cloudy - 22.2 1017.0 0.0
18/06:30pm E 11 15 - - - - - Partly cloudy - 22.2 1016.6 0.0
18/06:00pm E 13 17 - - - - - Mostly clear - 22.3 1016.3 0.0
18/05:30pm ENE 10 15 - - - - - Partly cloudy - 22.6 1016.6 0.0
18/05:00pm ENE 9 15 - - - - - - - 23.3 1016.6 0.0
18/04:30pm E 10 14 - - - - - Partly cloudy - 23.8 1016.4 0.0
18/04:00pm E 11 16 - - - - - - - 24.2 1016.3 0.0
18/03:30pm E 12 17 - - - - - Partly cloudy - 24.0 1016.3 0.0
18/03:00pm E 11 18 - - - - - Mostly clear - 24.4 1016.3 0.0
18/02:30pm E 10 16 - - - - - - - 25.2 1016.6 0.0
18/02:00pm E 11 17 - - - - - Partly cloudy - 24.9 1016.9 0.0
18/01:30pm E 11 19 - - - - - Partly cloudy - 25.4 1017.3 0.0
18/01:00pm E 10 15 - - - - - - - 25.4 1017.9 0.0
18/12:30pm E 9 14 - - - - - Partly cloudy - 25.2 1018.4 0.0
18/12:00pm ESE 9 13 - - - - - Mostly clear - 24.4 1018.9 0.0
18/11:30am E 9 13 - - - - - - - 25.1 1019.5 0.0
18/11:00am ESE 8 16 - - - - - Partly cloudy - 24.4 1019.9 0.0
18/10:30am E 9 15 - - - - - Partly cloudy - 25.7 1020.3 0.0
18/10:00am ESE 9 14 - - - - - Partly cloudy - 24.7 1020.3 0.0
18/09:30am E 9 15 - - - - - Partly cloudy - 24.0 1020.2 0.0
18/09:00am ESE 7 12 - - - - - Cloudy - 24.6 1020.3 0.0
18/08:30am ESE 8 12 - - - - - Partly cloudy - 23.9 1020.0 0.0
18/08:00am E 9 13 - - - - - Partly cloudy - 24.1 1019.8 0.0
18/07:30am E 9 13 - - - - - Partly cloudy - 23.4 1019.4 0.0
18/07:00am ENE 10 14 - - - - - Partly cloudy - 22.5 1019.0 0.0
18/06:30am E 10 15 - - - - - Partly cloudy - 22.1 1018.6 0.0
18/06:00am E 10 14 - - - - - Partly cloudy - 22.0 1018.3 0.0
18/05:30am SE 7 12 - - - - - Partly cloudy - 21.9 1018.0 0.0
18/05:00am ESE 7 12 - - - - - Partly cloudy - 21.9 1017.8 0.0
18/04:30am ESE 7 13 - - - - - Partly cloudy - 21.9 1017.6 0.0
18/04:00am ESE 8 12 - - - - - Partly cloudy - 22.0 1017.4 0.0
18/03:30am E 8 11 - - - - - Partly cloudy - 22.0 1017.2 0.0
18/03:00am E 9 14 - - - - - Partly cloudy - 21.9 1017.3 0.0
18/02:30am E 11 16 - - - - - Partly cloudy - 22.0 1017.6 0.0
18/02:00am E 10 15 - - - - - Partly cloudy - 22.1 1017.7 0.0
18/01:30am E 8 14 - - - - - Partly cloudy - 21.9 1018.0 0.0
18/01:00am E 9 14 - - - - - Cloudy - 22.0 1018.3 0.0
18/12:30am E 11 17 - - - - - Partly cloudy - 21.9 1018.5 0.0
18/12:00am E 8 12 - - - - - Partly cloudy - 22.1 1018.7 0.0
 
Date/Time
EST
Wind Sea
Height
m
Swell Vis
km
Cloud Weather Temp
°C
Press
hPa
Rain since
9am
mm
Dir  Spd
kts
Gust
kts
Height
m
Period
s
Dir
17/11:30pm E 8 12 - - - - - Partly cloudy - 22.2 1018.7 0.0
17/11:00pm E 7 10 - - - - - Partly cloudy - 22.0 1018.6 0.0
17/10:30pm ESE 6 11 - - - - - Partly cloudy - 22.0 1018.5 0.0
17/10:00pm E 8 12 - - - - - Partly cloudy - 22.0 1018.5 0.0
17/09:30pm E 9 13 - - - - - Partly cloudy - 22.2 1018.7 0.0
17/09:00pm ESE 7 11 - - - - - Cloudy - 22.2 1018.5 0.0
17/08:30pm ESE 8 11 - - - - - Partly cloudy - 21.9 1018.4 0.0
17/08:00pm ESE 8 13 - - - - - Partly cloudy - 22.0 1018.1 0.0
17/07:48pm ESE 9 14 - - - - - Partly cloudy - 21.9 1017.9 0.0
17/07:30pm E 9 14 - - - - - Partly cloudy - 22.0 1017.6 0.0
17/07:00pm ESE 9 14 - - - - - Partly cloudy - 21.9 1017.1 0.0
17/06:30pm E 9 13 - - - - - Partly cloudy - 21.8 1016.6 0.0
17/06:22pm ESE 8 12 - - - - - Partly cloudy - 21.8 1016.5 0.0
17/06:20pm ESE 8 12 - - - - - Partly cloudy - 21.8 1016.5 0.0
17/06:00pm E 9 14 - - - - - Partly cloudy - 21.9 1016.4 0.0
17/05:30pm ESE 7 11 - - - - - Partly cloudy - 22.1 1016.1 0.0
17/05:00pm ESE 9 13 - - - - - Partly cloudy - 22.2 1015.9 0.0
17/04:57pm SE 9 13 - - - - - Partly cloudy - 22.3 1015.9 0.0
17/04:30pm ESE 9 15 - - - - - Partly cloudy - 22.6 1015.5 0.0
17/04:00pm SE 9 14 - - - - - Partly cloudy - 23.0 1015.4 0.0
17/03:30pm SE 10 16 - - - - - Partly cloudy - 23.4 1015.4 0.0
17/03:00pm SE 9 15 - - - - - Mostly clear - 24.0 1015.4 0.0
17/02:30pm SE 10 17 - - - - - - - 23.8 1015.6 0.0
17/02:00pm SE 11 17 - - - - - - - 23.9 1015.8 0.0
17/01:30pm SE 11 17 - - - - - - - 23.9 1016.1 0.0
17/01:00pm SE 11 17 - - - - - - - 23.8 1016.4 0.0
17/12:30pm SSE 10 17 - - - - - - - 23.7 1016.9 0.0
17/12:00pm SSE 12 18 - - - - - Mostly clear - 24.1 1017.0 0.0
17/11:30am SSE 12 20 - - - - - - - 23.3 1017.4 0.0
17/11:00am SSE 12 19 - - - - - Partly cloudy - 23.9 1017.7 0.0
17/10:30am SSE 12 21 - - - - - Partly cloudy - 24.0 1018.0 0.0

Other Formats:

Comma delimited format used in spreadsheet applications
http://www.bom.gov.au/fwo/IDQ60701/IDQ60701.94367.axf

JavaScript Object Notation format (JSON) in row-major order
http://www.bom.gov.au/fwo/IDQ60701/IDQ60701.94367.json